Lil Susan S — WBD8211 — position and weather

sailwx.info

Track history (hours):
 
Tides and Currents Weather Stations Pressure Air Temp Water Temp Dewpoint Dewpoint Depression Visibility Wind Speed Wind Dir Waves Ship Positions

Lil Susan S

Owner: S & W MARINE INC, LOCKPORT, LA. More information available from US FCC via Universal Licensing System and Coast Guard Vessel Documentation Center.

Last reported at 2017-Sep-21 19:24 UTC. Time now 2017-Sep-22 00:58 UTC.
Position N 29°34' W 090°56'.

Length 25 m; draft 2.6 m.

Type: Towing. MMSI: 367011790.

Date/timePositionNaut miles runAvg speedWind from/ knotsBaromVisibWave heightAir tempDewpointWater temp
2017-Sep-21 19:24N 29°34' W 090°56'4 6.2
2017-Sep-21 18:48N 29°32' W 090°52'2 6.3
2017-Sep-21 18:30N 29°32' W 090°50'3 6.0
2017-Sep-21 18:00N 29°32' W 090°47'3 5.2
2017-Sep-21 17:30N 29°34' W 090°44'2 3.8
2017-Sep-21 17:00N 29°35' W 090°43'2 3.6
2017-Sep-21 16:30N 29°37' W 090°41'3 5.4
2017-Sep-21 16:00N 29°35' W 090°39'3 5.3
2017-Sep-21 15:30N 29°35' W 090°36'  
Track history (hours):
 
Tides and Currents Weather Stations Pressure Air Temp Water Temp Dewpoint Dewpoint Depression Visibility Wind Speed Wind Dir Waves Ship Positions

Lil Susan S

Owner: S & W MARINE INC, LOCKPORT, LA. More information available from US FCC via Universal Licensing System and Coast Guard Vessel Documentation Center.

Last reported at 2017-Sep-21 19:24 UTC. Time now 2017-Sep-22 00:58 UTC.
Position N 29°34' W 090°56'.

Length 25 m; draft 2.6 m.

Type: Towing. MMSI: 367011790.

Date/timePositionNaut miles runAvg speedWind from/ knotsBaromVisibWave heightAir tempDewpointWater temp
2017-Sep-21 19:24N 29°34' W 090°56'4 6.2
2017-Sep-21 18:48N 29°32' W 090°52'2 6.3
2017-Sep-21 18:30N 29°32' W 090°50'3 6.0
2017-Sep-21 18:00N 29°32' W 090°47'3 5.2
2017-Sep-21 17:30N 29°34' W 090°44'2 3.8
2017-Sep-21 17:00N 29°35' W 090°43'2 3.6
2017-Sep-21 16:30N 29°37' W 090°41'3 5.4
2017-Sep-21 16:00N 29°35' W 090°39'3 5.3
2017-Sep-21 15:30N 29°35' W 090°36'  

Dump ship's entire track history